sensor_id;sensor_type;location;lat;lon;timestamp;temperature;humidity
60495;DHT22;46342;49.046;11.920;2022-12-18T00:01:21;-1.70;62.40
60495;DHT22;46342;49.046;11.920;2022-12-18T00:03:48;-1.70;62.60
60495;DHT22;46342;49.046;11.920;2022-12-18T00:06:15;-1.70;62.50
60495;DHT22;46342;49.046;11.920;2022-12-18T00:08:41;-1.70;62.50
60495;DHT22;46342;49.046;11.920;2022-12-18T00:11:09;-1.70;62.40
60495;DHT22;46342;49.046;11.920;2022-12-18T00:13:36;-1.70;62.50
60495;DHT22;46342;49.046;11.920;2022-12-18T00:16:07;-1.70;62.50
60495;DHT22;46342;49.046;11.920;2022-12-18T00:18:34;-1.70;62.70
60495;DHT22;46342;49.046;11.920;2022-12-18T00:21:06;-1.70;62.60
60495;DHT22;46342;49.046;11.920;2022-12-18T00:23:34;-1.70;62.80
60495;DHT22;46342;49.046;11.920;2022-12-18T00:26:01;-1.70;62.60
60495;DHT22;46342;49.046;11.920;2022-12-18T00:28:27;-1.70;62.60
60495;DHT22;46342;49.046;11.920;2022-12-18T00:31:21;-1.70;62.50
60495;DHT22;46342;49.046;11.920;2022-12-18T00:33:47;-1.70;62.60
60495;DHT22;46342;49.046;11.920;2022-12-18T00:36:19;-1.70;62.40
60495;DHT22;46342;49.046;11.920;2022-12-18T00:38:45;-1.70;62.60
60495;DHT22;46342;49.046;11.920;2022-12-18T00:41:12;-1.70;62.60
60495;DHT22;46342;49.046;11.920;2022-12-18T00:43:39;-1.70;62.70
60495;DHT22;46342;49.046;11.920;2022-12-18T00:46:05;-1.70;62.80
60495;DHT22;46342;49.046;11.920;2022-12-18T00:48:31;-1.70;62.80
60495;DHT22;46342;49.046;11.920;2022-12-18T00:50:57;-1.70;62.80
60495;DHT22;46342;49.046;11.920;2022-12-18T00:53:23;-1.70;62.70
60495;DHT22;46342;49.046;11.920;2022-12-18T00:55:48;-1.60;62.80
60495;DHT22;46342;49.046;11.920;2022-12-18T00:58:16;-1.70;62.70
60495;DHT22;46342;49.046;11.920;2022-12-18T01:00:42;-1.60;62.80
60495;DHT22;46342;49.046;11.920;2022-12-18T01:03:07;-1.60;62.80
60495;DHT22;46342;49.046;11.920;2022-12-18T01:05:33;-1.60;62.80
60495;DHT22;46342;49.046;11.920;2022-12-18T01:07:59;-1.60;62.70
60495;DHT22;46342;49.046;11.920;2022-12-18T01:10:25;-1.60;62.70
60495;DHT22;46342;49.046;11.920;2022-12-18T01:12:51;-1.60;62.70
60495;DHT22;46342;49.046;11.920;2022-12-18T01:15:17;-1.60;62.70
60495;DHT22;46342;49.046;11.920;2022-12-18T01:17:43;-1.70;62.60
60495;DHT22;46342;49.046;11.920;2022-12-18T01:20:10;-1.60;62.80
60495;DHT22;46342;49.046;11.920;2022-12-18T01:22:36;-1.60;62.80
60495;DHT22;46342;49.046;11.920;2022-12-18T01:25:03;-1.70;62.60
60495;DHT22;46342;49.046;11.920;2022-12-18T01:27:29;-1.70;62.60
60495;DHT22;46342;49.046;11.920;2022-12-18T01:29:55;-1.70;62.60
60495;DHT22;46342;49.046;11.920;2022-12-18T01:32:20;-1.70;62.60
60495;DHT22;46342;49.046;11.920;2022-12-18T01:34:47;-1.70;62.70
60495;DHT22;46342;49.046;11.920;2022-12-18T01:37:13;-1.70;62.80
60495;DHT22;46342;49.046;11.920;2022-12-18T01:39:38;-1.70;62.90
60495;DHT22;46342;49.046;11.920;2022-12-18T01:42:11;-1.70;63.00
60495;DHT22;46342;49.046;11.920;2022-12-18T01:44:55;-1.60;63.20
60495;DHT22;46342;49.046;11.920;2022-12-18T01:49:50;-1.60;63.20
60495;DHT22;46342;49.046;11.920;2022-12-18T01:52:17;-1.60;63.20
60495;DHT22;46342;49.046;11.920;2022-12-18T01:54:43;-1.60;63.20
60495;DHT22;46342;49.046;11.920;2022-12-18T01:57:09;-1.60;63.20
60495;DHT22;46342;49.046;11.920;2022-12-18T01:59:35;-1.60;63.30
60495;DHT22;46342;49.046;11.920;2022-12-18T02:02:03;-1.50;63.50
60495;DHT22;46342;49.046;11.920;2022-12-18T02:04:28;-1.50;63.50
60495;DHT22;46342;49.046;11.920;2022-12-18T02:12:43;-1.50;63.40
60495;DHT22;46342;49.046;11.920;2022-12-18T02:15:17;-1.40;63.80
60495;DHT22;46342;49.046;11.920;2022-12-18T02:17:54;-1.40;63.60
60495;DHT22;46342;49.046;11.920;2022-12-18T02:20:44;-1.40;63.60
60495;DHT22;46342;49.046;11.920;2022-12-18T02:23:32;-1.40;63.70
60495;DHT22;46342;49.046;11.920;2022-12-18T02:28:33;-1.40;63.40
60495;DHT22;46342;49.046;11.920;2022-12-18T02:31:02;-1.30;63.50
60495;DHT22;46342;49.046;11.920;2022-12-18T02:33:28;-1.30;63.50
60495;DHT22;46342;49.046;11.920;2022-12-18T02:35:57;-1.30;63.50
60495;DHT22;46342;49.046;11.920;2022-12-18T02:38:24;-1.30;63.50
60495;DHT22;46342;49.046;11.920;2022-12-18T02:40:51;-1.30;63.50
60495;DHT22;46342;49.046;11.920;2022-12-18T02:43:18;-1.30;63.50
60495;DHT22;46342;49.046;11.920;2022-12-18T02:45:58;-1.30;63.50
60495;DHT22;46342;49.046;11.920;2022-12-18T02:48:31;-1.30;63.80
60495;DHT22;46342;49.046;11.920;2022-12-18T02:51:08;-1.20;63.70
60495;DHT22;46342;49.046;11.920;2022-12-18T02:53:45;-1.20;63.80
60495;DHT22;46342;49.046;11.920;2022-12-18T02:56:21;-1.20;63.80
60495;DHT22;46342;49.046;11.920;2022-12-18T03:01:42;-1.20;63.80
60495;DHT22;46342;49.046;11.920;2022-12-18T03:06:50;-1.20;63.60
60495;DHT22;46342;49.046;11.920;2022-12-18T03:09:31;-1.20;63.60
60495;DHT22;46342;49.046;11.920;2022-12-18T03:12:19;-1.20;63.60
60495;DHT22;46342;49.046;11.920;2022-12-18T03:15:14;-1.20;63.70
60495;DHT22;46342;49.046;11.920;2022-12-18T03:17:47;-1.20;63.60
60495;DHT22;46342;49.046;11.920;2022-12-18T03:20:17;-1.20;63.30
60495;DHT22;46342;49.046;11.920;2022-12-18T03:22:47;-1.20;63.30
60495;DHT22;46342;49.046;11.920;2022-12-18T03:25:15;-1.20;63.50
60495;DHT22;46342;49.046;11.920;2022-12-18T03:27:46;-1.20;63.40
60495;DHT22;46342;49.046;11.920;2022-12-18T03:30:14;-1.20;63.40
60495;DHT22;46342;49.046;11.920;2022-12-18T03:35:15;-1.20;63.30
60495;DHT22;46342;49.046;11.920;2022-12-18T03:37:43;-1.20;63.20
60495;DHT22;46342;49.046;11.920;2022-12-18T03:40:09;-1.20;63.20
60495;DHT22;46342;49.046;11.920;2022-12-18T03:42:51;-1.20;63.20
60495;DHT22;46342;49.046;11.920;2022-12-18T03:45:35;-1.20;63.30
60495;DHT22;46342;49.046;11.920;2022-12-18T03:51:07;-1.20;63.50
60495;DHT22;46342;49.046;11.920;2022-12-18T03:53:55;-1.20;63.30
60495;DHT22;46342;49.046;11.920;2022-12-18T03:56:26;-1.20;63.50
60495;DHT22;46342;49.046;11.920;2022-12-18T03:58:54;-1.20;63.40
60495;DHT22;46342;49.046;11.920;2022-12-18T04:01:26;-1.20;63.30
60495;DHT22;46342;49.046;11.920;2022-12-18T04:03:54;-1.20;63.50
60495;DHT22;46342;49.046;11.920;2022-12-18T04:06:20;-1.20;63.30
60495;DHT22;46342;49.046;11.920;2022-12-18T04:08:47;-1.20;63.30
60495;DHT22;46342;49.046;11.920;2022-12-18T04:11:13;-1.20;63.30
60495;DHT22;46342;49.046;11.920;2022-12-18T04:13:39;-1.20;63.30
60495;DHT22;46342;49.046;11.920;2022-12-18T04:16:05;-1.20;63.40
60495;DHT22;46342;49.046;11.920;2022-12-18T04:18:31;-1.20;63.40
60495;DHT22;46342;49.046;11.920;2022-12-18T04:20:56;-1.20;63.40
60495;DHT22;46342;49.046;11.920;2022-12-18T04:23:22;-1.20;63.40
60495;DHT22;46342;49.046;11.920;2022-12-18T04:25:48;-1.20;63.30
60495;DHT22;46342;49.046;11.920;2022-12-18T04:28:13;-1.20;63.30
60495;DHT22;46342;49.046;11.920;2022-12-18T04:30:39;-1.20;63.30
60495;DHT22;46342;49.046;11.920;2022-12-18T04:33:12;-1.20;63.30
60495;DHT22;46342;49.046;11.920;2022-12-18T04:35:39;-1.20;63.40
60495;DHT22;46342;49.046;11.920;2022-12-18T04:38:06;-1.20;64.20
60495;DHT22;46342;49.046;11.920;2022-12-18T04:40:32;-1.20;63.30
60495;DHT22;46342;49.046;11.920;2022-12-18T04:42:57;-1.10;63.40
60495;DHT22;46342;49.046;11.920;2022-12-18T04:45:23;-1.20;63.30
60495;DHT22;46342;49.046;11.920;2022-12-18T04:47:49;-1.20;63.40
60495;DHT22;46342;49.046;11.920;2022-12-18T04:50:14;-1.20;63.50
60495;DHT22;46342;49.046;11.920;2022-12-18T04:52:40;-1.20;63.50
60495;DHT22;46342;49.046;11.920;2022-12-18T04:55:05;-1.20;63.50
60495;DHT22;46342;49.046;11.920;2022-12-18T04:57:31;-1.20;63.60
60495;DHT22;46342;49.046;11.920;2022-12-18T04:59:57;-1.20;63.60
60495;DHT22;46342;49.046;11.920;2022-12-18T05:02:22;-1.20;63.60
60495;DHT22;46342;49.046;11.920;2022-12-18T05:04:48;-1.20;63.60
60495;DHT22;46342;49.046;11.920;2022-12-18T05:07:13;-1.20;63.50
60495;DHT22;46342;49.046;11.920;2022-12-18T05:09:40;-1.20;63.60
60495;DHT22;46342;49.046;11.920;2022-12-18T05:12:06;-1.20;63.60
60495;DHT22;46342;49.046;11.920;2022-12-18T05:14:31;-1.20;63.60
60495;DHT22;46342;49.046;11.920;2022-12-18T05:16:57;-1.10;63.80
60495;DHT22;46342;49.046;11.920;2022-12-18T05:19:22;-1.10;63.80
60495;DHT22;46342;49.046;11.920;2022-12-18T05:21:48;-1.10;63.80
60495;DHT22;46342;49.046;11.920;2022-12-18T05:24:14;-1.10;63.80
60495;DHT22;46342;49.046;11.920;2022-12-18T05:26:39;-1.10;63.80
60495;DHT22;46342;49.046;11.920;2022-12-18T05:29:05;-1.10;63.80
60495;DHT22;46342;49.046;11.920;2022-12-18T05:31:30;-1.10;63.60
60495;DHT22;46342;49.046;11.920;2022-12-18T05:33:56;-1.10;63.60
60495;DHT22;46342;49.046;11.920;2022-12-18T05:36:21;-1.10;63.60
60495;DHT22;46342;49.046;11.920;2022-12-18T05:38:47;-1.00;63.70
60495;DHT22;46342;49.046;11.920;2022-12-18T05:41:13;-1.00;63.70
60495;DHT22;46342;49.046;11.920;2022-12-18T05:43:39;-1.00;63.70
60495;DHT22;46342;49.046;11.920;2022-12-18T05:46:07;-1.00;63.60
60495;DHT22;46342;49.046;11.920;2022-12-18T05:48:33;-1.00;63.60
60495;DHT22;46342;49.046;11.920;2022-12-18T05:51:05;-1.00;63.50
60495;DHT22;46342;49.046;11.920;2022-12-18T05:53:31;-1.00;63.50
60495;DHT22;46342;49.046;11.920;2022-12-18T05:56:00;-1.00;63.30
60495;DHT22;46342;49.046;11.920;2022-12-18T05:58:26;-1.10;63.20
60495;DHT22;46342;49.046;11.920;2022-12-18T06:00:52;-1.10;63.20
60495;DHT22;46342;49.046;11.920;2022-12-18T06:03:18;-1.10;63.20
60495;DHT22;46342;49.046;11.920;2022-12-18T06:05:44;-1.10;63.10
60495;DHT22;46342;49.046;11.920;2022-12-18T06:08:11;-1.10;63.00
60495;DHT22;46342;49.046;11.920;2022-12-18T06:10:37;-1.10;63.00
60495;DHT22;46342;49.046;11.920;2022-12-18T06:13:03;-1.10;63.00
60495;DHT22;46342;49.046;11.920;2022-12-18T06:15:29;-1.10;63.00
60495;DHT22;46342;49.046;11.920;2022-12-18T06:17:55;-1.20;63.00
60495;DHT22;46342;49.046;11.920;2022-12-18T06:20:20;-1.20;63.10
60495;DHT22;46342;49.046;11.920;2022-12-18T06:22:46;-1.20;63.20
60495;DHT22;46342;49.046;11.920;2022-12-18T06:25:12;-1.20;63.30
60495;DHT22;46342;49.046;11.920;2022-12-18T06:27:37;-1.20;63.30
60495;DHT22;46342;49.046;11.920;2022-12-18T06:30:05;-1.20;63.30
60495;DHT22;46342;49.046;11.920;2022-12-18T06:32:31;-1.20;63.30
60495;DHT22;46342;49.046;11.920;2022-12-18T06:34:56;-1.20;63.20
60495;DHT22;46342;49.046;11.920;2022-12-18T06:37:22;-1.20;63.10
60495;DHT22;46342;49.046;11.920;2022-12-18T06:39:52;-1.20;63.10
60495;DHT22;46342;49.046;11.920;2022-12-18T06:42:18;-1.20;63.10
60495;DHT22;46342;49.046;11.920;2022-12-18T06:44:43;-1.20;63.10
60495;DHT22;46342;49.046;11.920;2022-12-18T06:47:09;-1.20;63.10
60495;DHT22;46342;49.046;11.920;2022-12-18T06:49:34;-1.30;62.90
60495;DHT22;46342;49.046;11.920;2022-12-18T06:52:00;-1.30;63.00
60495;DHT22;46342;49.046;11.920;2022-12-18T06:54:26;-1.30;63.00
60495;DHT22;46342;49.046;11.920;2022-12-18T06:56:51;-1.30;63.10
60495;DHT22;46342;49.046;11.920;2022-12-18T06:59:17;-1.30;63.00
60495;DHT22;46342;49.046;11.920;2022-12-18T07:01:42;-1.30;62.90
60495;DHT22;46342;49.046;11.920;2022-12-18T07:04:08;-1.30;62.90
60495;DHT22;46342;49.046;11.920;2022-12-18T07:06:34;-1.30;62.90
60495;DHT22;46342;49.046;11.920;2022-12-18T07:08:59;-1.40;62.80
60495;DHT22;46342;49.046;11.920;2022-12-18T07:11:25;-1.40;63.00
60495;DHT22;46342;49.046;11.920;2022-12-18T07:13:52;-1.40;63.00
60495;DHT22;46342;49.046;11.920;2022-12-18T07:16:19;-1.40;63.10
60495;DHT22;46342;49.046;11.920;2022-12-18T07:18:45;-1.40;63.20
60495;DHT22;46342;49.046;11.920;2022-12-18T07:21:14;-1.40;63.20
60495;DHT22;46342;49.046;11.920;2022-12-18T07:23:40;-1.40;63.30
60495;DHT22;46342;49.046;11.920;2022-12-18T07:26:07;-1.40;63.20
60495;DHT22;46342;49.046;11.920;2022-12-18T07:28:35;-1.30;63.30
60495;DHT22;46342;49.046;11.920;2022-12-18T07:31:05;-1.30;63.10
60495;DHT22;46342;49.046;11.920;2022-12-18T07:33:32;-1.30;63.30
60495;DHT22;46342;49.046;11.920;2022-12-18T07:36:05;-1.40;63.00
60495;DHT22;46342;49.046;11.920;2022-12-18T07:38:33;-1.40;63.00
60495;DHT22;46342;49.046;11.920;2022-12-18T07:41:04;-1.40;63.90
60495;DHT22;46342;49.046;11.920;2022-12-18T07:43:30;-1.30;63.30
60495;DHT22;46342;49.046;11.920;2022-12-18T07:45:56;-1.40;63.20
60495;DHT22;46342;49.046;11.920;2022-12-18T07:48:22;-1.40;63.20
60495;DHT22;46342;49.046;11.920;2022-12-18T07:50:48;-1.40;63.20
60495;DHT22;46342;49.046;11.920;2022-12-18T07:53:13;-1.30;63.30
60495;DHT22;46342;49.046;11.920;2022-12-18T07:55:41;-1.40;63.20
60495;DHT22;46342;49.046;11.920;2022-12-18T07:58:07;-1.30;63.50
60495;DHT22;46342;49.046;11.920;2022-12-18T08:00:34;-1.30;63.50
60495;DHT22;46342;49.046;11.920;2022-12-18T08:03:00;-1.30;63.50
60495;DHT22;46342;49.046;11.920;2022-12-18T08:05:26;-1.30;63.50
60495;DHT22;46342;49.046;11.920;2022-12-18T08:07:52;-1.30;63.30
60495;DHT22;46342;49.046;11.920;2022-12-18T08:10:19;-1.30;63.40
60495;DHT22;46342;49.046;11.920;2022-12-18T08:12:45;-1.30;63.50
60495;DHT22;46342;49.046;11.920;2022-12-18T08:15:11;-1.30;63.50
60495;DHT22;46342;49.046;11.920;2022-12-18T08:17:36;-1.30;63.50
60495;DHT22;46342;49.046;11.920;2022-12-18T08:20:02;-1.30;63.50
60495;DHT22;46342;49.046;11.920;2022-12-18T08:22:28;-1.30;63.50
60495;DHT22;46342;49.046;11.920;2022-12-18T08:24:53;-1.30;63.50
60495;DHT22;46342;49.046;11.920;2022-12-18T08:27:19;-1.30;63.60
60495;DHT22;46342;49.046;11.920;2022-12-18T08:29:45;-1.20;63.70
60495;DHT22;46342;49.046;11.920;2022-12-18T08:32:10;-1.20;63.50
60495;DHT22;46342;49.046;11.920;2022-12-18T08:34:36;-1.20;63.60
60495;DHT22;46342;49.046;11.920;2022-12-18T08:37:01;-1.20;63.70
60495;DHT22;46342;49.046;11.920;2022-12-18T08:39:27;-1.20;63.80
60495;DHT22;46342;49.046;11.920;2022-12-18T08:41:52;-1.20;63.80
60495;DHT22;46342;49.046;11.920;2022-12-18T08:44:37;-1.10;63.90
60495;DHT22;46342;49.046;11.920;2022-12-18T08:47:03;-1.10;63.80
60495;DHT22;46342;49.046;11.920;2022-12-18T08:49:29;-1.10;63.80
60495;DHT22;46342;49.046;11.920;2022-12-18T08:51:55;-1.10;63.60
60495;DHT22;46342;49.046;11.920;2022-12-18T08:54:22;-1.10;63.50
60495;DHT22;46342;49.046;11.920;2022-12-18T08:56:48;-1.10;63.50
60495;DHT22;46342;49.046;11.920;2022-12-18T08:59:15;-1.10;63.50
60495;DHT22;46342;49.046;11.920;2022-12-18T09:01:41;-1.10;63.60
60495;DHT22;46342;49.046;11.920;2022-12-18T09:04:08;-1.10;63.60
60495;DHT22;46342;49.046;11.920;2022-12-18T09:06:34;-1.10;63.70
60495;DHT22;46342;49.046;11.920;2022-12-18T09:09:00;-1.10;63.60
60495;DHT22;46342;49.046;11.920;2022-12-18T09:11:27;-1.10;63.60
60495;DHT22;46342;49.046;11.920;2022-12-18T09:13:54;-1.10;63.80
60495;DHT22;46342;49.046;11.920;2022-12-18T09:16:20;-1.00;63.90
60495;DHT22;46342;49.046;11.920;2022-12-18T09:18:46;-1.00;63.90
60495;DHT22;46342;49.046;11.920;2022-12-18T09:21:18;-1.00;63.90
60495;DHT22;46342;49.046;11.920;2022-12-18T09:23:48;-1.00;63.90
60495;DHT22;46342;49.046;11.920;2022-12-18T09:26:14;-1.00;63.80
60495;DHT22;46342;49.046;11.920;2022-12-18T09:28:40;-0.90;63.80
60495;DHT22;46342;49.046;11.920;2022-12-18T09:31:07;-0.90;63.60
60495;DHT22;46342;49.046;11.920;2022-12-18T09:33:35;-0.90;63.70
60495;DHT22;46342;49.046;11.920;2022-12-18T09:36:06;-0.90;63.70
60495;DHT22;46342;49.046;11.920;2022-12-18T09:38:32;-0.90;63.70
60495;DHT22;46342;49.046;11.920;2022-12-18T09:43:48;-0.90;64.00
60495;DHT22;46342;49.046;11.920;2022-12-18T09:46:30;-0.90;63.90
60495;DHT22;46342;49.046;11.920;2022-12-18T09:49:00;-0.90;63.80
60495;DHT22;46342;49.046;11.920;2022-12-18T09:51:33;-0.90;63.60
60495;DHT22;46342;49.046;11.920;2022-12-18T09:54:04;-0.90;63.60
60495;DHT22;46342;49.046;11.920;2022-12-18T09:56:35;-0.90;63.60
60495;DHT22;46342;49.046;11.920;2022-12-18T09:59:03;-0.90;63.60
60495;DHT22;46342;49.046;11.920;2022-12-18T10:01:30;-0.90;63.60
60495;DHT22;46342;49.046;11.920;2022-12-18T10:03:56;-0.80;63.80
60495;DHT22;46342;49.046;11.920;2022-12-18T10:06:48;-0.80;63.80
60495;DHT22;46342;49.046;11.920;2022-12-18T10:22:48;-0.70;64.10
60495;DHT22;46342;49.046;11.920;2022-12-18T10:28:00;-0.70;64.10
60495;DHT22;46342;49.046;11.920;2022-12-18T10:30:29;-0.60;64.00
60495;DHT22;46342;49.046;11.920;2022-12-18T10:33:01;-0.60;63.90
60495;DHT22;46342;49.046;11.920;2022-12-18T10:35:27;-0.60;63.90
60495;DHT22;46342;49.046;11.920;2022-12-18T10:40:47;-0.60;63.90
60495;DHT22;46342;49.046;11.920;2022-12-18T10:43:14;-0.50;63.90
60495;DHT22;46342;49.046;11.920;2022-12-18T10:45:41;-0.50;63.90
60495;DHT22;46342;49.046;11.920;2022-12-18T10:48:25;-0.50;63.80
60495;DHT22;46342;49.046;11.920;2022-12-18T10:50:52;-0.50;63.70
60495;DHT22;46342;49.046;11.920;2022-12-18T10:53:26;-0.50;63.60
60495;DHT22;46342;49.046;11.920;2022-12-18T10:55:53;-0.50;63.90
60495;DHT22;46342;49.046;11.920;2022-12-18T10:58:30;-0.50;63.90
60495;DHT22;46342;49.046;11.920;2022-12-18T11:03:37;-0.40;64.10
60495;DHT22;46342;49.046;11.920;2022-12-18T11:06:06;-0.40;63.90
60495;DHT22;46342;49.046;11.920;2022-12-18T11:08:31;-0.40;63.70
60495;DHT22;46342;49.046;11.920;2022-12-18T11:10:57;-0.30;63.80
60495;DHT22;46342;49.046;11.920;2022-12-18T11:13:25;-0.30;63.80
60495;DHT22;46342;49.046;11.920;2022-12-18T11:15:51;-0.30;64.80
60495;DHT22;46342;49.046;11.920;2022-12-18T11:18:24;-0.30;64.00
60495;DHT22;46342;49.046;11.920;2022-12-18T11:21:05;-0.30;63.80
60495;DHT22;46342;49.046;11.920;2022-12-18T11:23:31;-0.30;63.80
60495;DHT22;46342;49.046;11.920;2022-12-18T11:26:02;-0.30;63.80
60495;DHT22;46342;49.046;11.920;2022-12-18T11:31:17;-0.20;63.90
60495;DHT22;46342;49.046;11.920;2022-12-18T11:36:22;-0.20;63.50
60495;DHT22;46342;49.046;11.920;2022-12-18T11:38:49;-0.20;63.50
60495;DHT22;46342;49.046;11.920;2022-12-18T11:41:25;-0.20;63.60
60495;DHT22;46342;49.046;11.920;2022-12-18T11:44:16;-0.10;63.50
60495;DHT22;46342;49.046;11.920;2022-12-18T11:47:11;-0.20;63.20
60495;DHT22;46342;49.046;11.920;2022-12-18T11:49:34;-0.10;63.20
60495;DHT22;46342;49.046;11.920;2022-12-18T11:54:53;-0.10;63.20
60495;DHT22;46342;49.046;11.920;2022-12-18T12:00:18;-0.10;63.40
60495;DHT22;46342;49.046;11.920;2022-12-18T12:03:20;-0.10;63.30
60495;DHT22;46342;49.046;11.920;2022-12-18T12:14:25;-0.10;63.50
60495;DHT22;46342;49.046;11.920;2022-12-18T12:16:59;-0.10;63.40
60495;DHT22;46342;49.046;11.920;2022-12-18T12:22:22;0.00;62.90
60495;DHT22;46342;49.046;11.920;2022-12-18T12:38:21;-0.20;61.90
60495;DHT22;46342;49.046;11.920;2022-12-18T12:40:53;-0.20;61.60
60495;DHT22;46342;49.046;11.920;2022-12-18T12:45:55;-0.30;62.00
60495;DHT22;46342;49.046;11.920;2022-12-18T12:48:53;-0.30;62.10
60495;DHT22;46342;49.046;11.920;2022-12-18T12:51:49;-0.30;62.00
60495;DHT22;46342;49.046;11.920;2022-12-18T12:54:20;-0.40;62.20
60495;DHT22;46342;49.046;11.920;2022-12-18T12:57:04;-0.40;62.40
60495;DHT22;46342;49.046;11.920;2022-12-18T13:08:26;-0.40;62.60
60495;DHT22;46342;49.046;11.920;2022-12-18T13:10:56;-0.40;62.60
60495;DHT22;46342;49.046;11.920;2022-12-18T13:13:55;-0.30;62.80
60495;DHT22;46342;49.046;11.920;2022-12-18T13:16:22;-0.40;62.80
60495;DHT22;46342;49.046;11.920;2022-12-18T13:18:51;-0.40;62.90
60495;DHT22;46342;49.046;11.920;2022-12-18T13:21:30;-0.40;62.90
60495;DHT22;46342;49.046;11.920;2022-12-18T13:24:24;-0.30;63.00
60495;DHT22;46342;49.046;11.920;2022-12-18T13:26:50;-0.30;62.90
60495;DHT22;46342;49.046;11.920;2022-12-18T13:29:40;-0.30;62.90
60495;DHT22;46342;49.046;11.920;2022-12-18T13:32:19;-0.30;62.90
60495;DHT22;46342;49.046;11.920;2022-12-18T13:34:45;-0.30;63.00
60495;DHT22;46342;49.046;11.920;2022-12-18T13:37:39;-0.30;63.00
60495;DHT22;46342;49.046;11.920;2022-12-18T13:48:27;-0.20;62.40
60495;DHT22;46342;49.046;11.920;2022-12-18T13:51:08;-0.30;62.30
60495;DHT22;46342;49.046;11.920;2022-12-18T13:53:43;-0.30;62.30
60495;DHT22;46342;49.046;11.920;2022-12-18T13:56:16;-0.30;62.30
60495;DHT22;46342;49.046;11.920;2022-12-18T13:58:44;-0.30;62.30
60495;DHT22;46342;49.046;11.920;2022-12-18T14:01:22;-0.30;62.40
60495;DHT22;46342;49.046;11.920;2022-12-18T14:03:48;-0.30;62.30
60495;DHT22;46342;49.046;11.920;2022-12-18T14:06:14;-0.30;62.10
60495;DHT22;46342;49.046;11.920;2022-12-18T14:08:41;-0.30;62.00
60495;DHT22;46342;49.046;11.920;2022-12-18T14:11:17;-0.30;62.00
60495;DHT22;46342;49.046;11.920;2022-12-18T14:13:44;-0.30;62.00
60495;DHT22;46342;49.046;11.920;2022-12-18T14:16:14;-0.40;61.90
60495;DHT22;46342;49.046;11.920;2022-12-18T14:18:54;-0.40;61.80
60495;DHT22;46342;49.046;11.920;2022-12-18T14:21:28;-0.40;62.80
60495;DHT22;46342;49.046;11.920;2022-12-18T14:24:16;-0.50;61.80
60495;DHT22;46342;49.046;11.920;2022-12-18T14:26:42;-0.50;61.80
60495;DHT22;46342;49.046;11.920;2022-12-18T14:29:35;-0.50;61.80
60495;DHT22;46342;49.046;11.920;2022-12-18T14:32:14;-0.50;61.60
60495;DHT22;46342;49.046;11.920;2022-12-18T14:34:50;-0.50;61.60
60495;DHT22;46342;49.046;11.920;2022-12-18T14:37:19;-0.60;61.40
60495;DHT22;46342;49.046;11.920;2022-12-18T14:39:59;-0.60;61.30
60495;DHT22;46342;49.046;11.920;2022-12-18T14:42:26;-0.60;61.30
60495;DHT22;46342;49.046;11.920;2022-12-18T14:51:01;-0.80;61.10
60495;DHT22;46342;49.046;11.920;2022-12-18T14:53:40;-0.80;61.10
60495;DHT22;46342;49.046;11.920;2022-12-18T14:56:27;-0.80;61.10
60495;DHT22;46342;49.046;11.920;2022-12-18T15:01:34;-0.90;61.10
60495;DHT22;46342;49.046;11.920;2022-12-18T15:04:01;-0.90;61.10
60495;DHT22;46342;49.046;11.920;2022-12-18T15:06:36;-1.00;61.20
60495;DHT22;46342;49.046;11.920;2022-12-18T15:09:20;-1.00;61.20
60495;DHT22;46342;49.046;11.920;2022-12-18T15:11:46;-1.00;61.30
60495;DHT22;46342;49.046;11.920;2022-12-18T15:14:32;-1.10;61.20
60495;DHT22;46342;49.046;11.920;2022-12-18T15:16:59;-1.10;61.10
60495;DHT22;46342;49.046;11.920;2022-12-18T15:19:34;-1.10;61.20
60495;DHT22;46342;49.046;11.920;2022-12-18T15:22:00;-1.10;61.20
60495;DHT22;46342;49.046;11.920;2022-12-18T15:24:30;-1.20;61.20
60495;DHT22;46342;49.046;11.920;2022-12-18T15:26:57;-1.20;61.20
60495;DHT22;46342;49.046;11.920;2022-12-18T15:29:23;-1.20;61.20
60495;DHT22;46342;49.046;11.920;2022-12-18T15:32:20;-1.20;61.30
60495;DHT22;46342;49.046;11.920;2022-12-18T15:34:45;-1.20;61.20
60495;DHT22;46342;49.046;11.920;2022-12-18T15:37:11;-1.30;61.10
60495;DHT22;46342;49.046;11.920;2022-12-18T15:39:36;-1.30;61.10
60495;DHT22;46342;49.046;11.920;2022-12-18T15:42:02;-1.30;61.10
60495;DHT22;46342;49.046;11.920;2022-12-18T15:44:46;-1.30;61.00
60495;DHT22;46342;49.046;11.920;2022-12-18T15:47:13;-1.40;61.00
60495;DHT22;46342;49.046;11.920;2022-12-18T15:49:38;-1.40;60.90
60495;DHT22;46342;49.046;11.920;2022-12-18T15:52:04;-1.40;61.10
60495;DHT22;46342;49.046;11.920;2022-12-18T15:54:30;-1.40;61.10
60495;DHT22;46342;49.046;11.920;2022-12-18T15:57:15;-1.50;60.90
60495;DHT22;46342;49.046;11.920;2022-12-18T15:59:55;-1.50;60.90
60495;DHT22;46342;49.046;11.920;2022-12-18T16:02:23;-1.50;61.70
60495;DHT22;46342;49.046;11.920;2022-12-18T16:04:51;-1.60;60.80
60495;DHT22;46342;49.046;11.920;2022-12-18T16:07:18;-1.60;60.80
60495;DHT22;46342;49.046;11.920;2022-12-18T16:09:43;-1.60;60.90
60495;DHT22;46342;49.046;11.920;2022-12-18T16:12:21;-1.60;60.90
60495;DHT22;46342;49.046;11.920;2022-12-18T16:14:47;-1.70;60.70
60495;DHT22;46342;49.046;11.920;2022-12-18T16:17:14;-1.70;60.70
60495;DHT22;46342;49.046;11.920;2022-12-18T16:19:40;-1.70;60.70
60495;DHT22;46342;49.046;11.920;2022-12-18T16:22:05;-1.70;60.70
60495;DHT22;46342;49.046;11.920;2022-12-18T16:24:32;-1.70;60.80
60495;DHT22;46342;49.046;11.920;2022-12-18T16:26:59;-1.80;60.70
60495;DHT22;46342;49.046;11.920;2022-12-18T16:29:27;-1.80;60.80
60495;DHT22;46342;49.046;11.920;2022-12-18T16:31:58;-1.80;60.80
60495;DHT22;46342;49.046;11.920;2022-12-18T16:34:29;-1.90;60.70
60495;DHT22;46342;49.046;11.920;2022-12-18T16:37:00;-1.90;60.70
60495;DHT22;46342;49.046;11.920;2022-12-18T16:39:27;-1.90;60.70
60495;DHT22;46342;49.046;11.920;2022-12-18T16:41:53;-1.90;60.70
60495;DHT22;46342;49.046;11.920;2022-12-18T16:44:19;-2.00;60.70
60495;DHT22;46342;49.046;11.920;2022-12-18T16:46:45;-2.00;60.80
60495;DHT22;46342;49.046;11.920;2022-12-18T16:49:12;-2.00;60.80
60495;DHT22;46342;49.046;11.920;2022-12-18T16:51:38;-2.00;60.80
60495;DHT22;46342;49.046;11.920;2022-12-18T16:54:04;-2.00;60.80
60495;DHT22;46342;49.046;11.920;2022-12-18T16:56:30;-2.00;60.90
60495;DHT22;46342;49.046;11.920;2022-12-18T16:58:57;-2.10;60.80
60495;DHT22;46342;49.046;11.920;2022-12-18T17:01:24;-2.10;60.80
60495;DHT22;46342;49.046;11.920;2022-12-18T17:04:01;-2.10;60.80
60495;DHT22;46342;49.046;11.920;2022-12-18T17:06:29;-2.10;60.90
60495;DHT22;46342;49.046;11.920;2022-12-18T17:09:00;-2.10;60.90
60495;DHT22;46342;49.046;11.920;2022-12-18T17:11:27;-2.10;60.80
60495;DHT22;46342;49.046;11.920;2022-12-18T17:13:52;-2.20;60.80
60495;DHT22;46342;49.046;11.920;2022-12-18T17:16:19;-2.20;60.80
60495;DHT22;46342;49.046;11.920;2022-12-18T17:18:45;-2.20;60.80
60495;DHT22;46342;49.046;11.920;2022-12-18T17:21:11;-2.20;60.90